sensor_id;sensor_type;location;lat;lon;timestamp;temperature;humidity
4406;DHT22;2216;53.806;11.598;2022-10-16T00:01:26;15.50;71.70
4406;DHT22;2216;53.806;11.598;2022-10-16T00:03:53;15.50;71.70
4406;DHT22;2216;53.806;11.598;2022-10-16T00:06:20;15.40;71.60
4406;DHT22;2216;53.806;11.598;2022-10-16T00:08:47;15.50;71.80
4406;DHT22;2216;53.806;11.598;2022-10-16T00:11:15;15.40;71.70
4406;DHT22;2216;53.806;11.598;2022-10-16T00:13:44;15.40;71.70
4406;DHT22;2216;53.806;11.598;2022-10-16T00:16:12;15.40;71.70
4406;DHT22;2216;53.806;11.598;2022-10-16T00:18:39;15.30;71.70
4406;DHT22;2216;53.806;11.598;2022-10-16T00:21:20;15.30;71.70
4406;DHT22;2216;53.806;11.598;2022-10-16T00:23:53;15.30;71.70
4406;DHT22;2216;53.806;11.598;2022-10-16T00:26:21;15.30;71.80
4406;DHT22;2216;53.806;11.598;2022-10-16T00:28:49;15.30;71.80
4406;DHT22;2216;53.806;11.598;2022-10-16T00:31:16;15.20;71.80
4406;DHT22;2216;53.806;11.598;2022-10-16T00:33:43;15.20;71.70
4406;DHT22;2216;53.806;11.598;2022-10-16T00:36:14;15.20;71.80
4406;DHT22;2216;53.806;11.598;2022-10-16T00:38:41;15.20;71.80
4406;DHT22;2216;53.806;11.598;2022-10-16T00:41:09;15.20;71.80
4406;DHT22;2216;53.806;11.598;2022-10-16T00:46:25;15.10;71.80
4406;DHT22;2216;53.806;11.598;2022-10-16T00:49:02;14.90;71.70
4406;DHT22;2216;53.806;11.598;2022-10-16T00:51:34;15.10;71.80
4406;DHT22;2216;53.806;11.598;2022-10-16T00:54:04;15.00;71.90
4406;DHT22;2216;53.806;11.598;2022-10-16T00:56:33;15.00;71.90
4406;DHT22;2216;53.806;11.598;2022-10-16T00:59:03;15.00;71.90
4406;DHT22;2216;53.806;11.598;2022-10-16T01:01:30;14.90;71.80
4406;DHT22;2216;53.806;11.598;2022-10-16T01:03:56;14.90;71.80
4406;DHT22;2216;53.806;11.598;2022-10-16T01:06:24;14.90;71.80
4406;DHT22;2216;53.806;11.598;2022-10-16T01:09:11;14.90;71.80
4406;DHT22;2216;53.806;11.598;2022-10-16T01:14:57;14.80;71.80
4406;DHT22;2216;53.806;11.598;2022-10-16T01:20:26;14.80;71.90
4406;DHT22;2216;53.806;11.598;2022-10-16T01:23:17;14.70;71.80
4406;DHT22;2216;53.806;11.598;2022-10-16T01:28:57;14.60;71.80
4406;DHT22;2216;53.806;11.598;2022-10-16T01:31:30;14.60;71.90
4406;DHT22;2216;53.806;11.598;2022-10-16T01:34:03;14.60;71.90
4406;DHT22;2216;53.806;11.598;2022-10-16T01:36:37;14.60;71.90
4406;DHT22;2216;53.806;11.598;2022-10-16T01:39:06;14.60;71.90
4406;DHT22;2216;53.806;11.598;2022-10-16T01:41:39;14.60;72.00
4406;DHT22;2216;53.806;11.598;2022-10-16T01:44:29;14.60;72.00
4406;DHT22;2216;53.806;11.598;2022-10-16T01:46:57;14.50;71.90
4406;DHT22;2216;53.806;11.598;2022-10-16T01:49:26;14.50;71.90
4406;DHT22;2216;53.806;11.598;2022-10-16T01:51:59;14.50;71.90
4406;DHT22;2216;53.806;11.598;2022-10-16T01:54:31;14.50;71.90
4406;DHT22;2216;53.806;11.598;2022-10-16T01:56:58;14.50;71.90
4406;DHT22;2216;53.806;11.598;2022-10-16T01:59:26;14.50;71.90
4406;DHT22;2216;53.806;11.598;2022-10-16T02:01:56;14.50;71.90
4406;DHT22;2216;53.806;11.598;2022-10-16T02:04:31;14.50;71.90
4406;DHT22;2216;53.806;11.598;2022-10-16T02:07:00;14.50;71.90
4406;DHT22;2216;53.806;11.598;2022-10-16T02:09:26;14.40;71.80
4406;DHT22;2216;53.806;11.598;2022-10-16T02:11:57;14.50;71.90
4406;DHT22;2216;53.806;11.598;2022-10-16T02:14:25;14.40;71.80
4406;DHT22;2216;53.806;11.598;2022-10-16T02:16:51;14.40;71.80
4406;DHT22;2216;53.806;11.598;2022-10-16T02:19:18;14.40;71.80
4406;DHT22;2216;53.806;11.598;2022-10-16T02:21:56;14.30;71.80
4406;DHT22;2216;53.806;11.598;2022-10-16T02:30:14;14.30;71.70
4406;DHT22;2216;53.806;11.598;2022-10-16T02:32:46;14.20;71.70
4406;DHT22;2216;53.806;11.598;2022-10-16T02:35:14;14.20;71.80
4406;DHT22;2216;53.806;11.598;2022-10-16T02:37:42;14.20;71.80
4406;DHT22;2216;53.806;11.598;2022-10-16T02:40:08;14.20;71.90
4406;DHT22;2216;53.806;11.598;2022-10-16T02:42:39;14.20;71.80
4406;DHT22;2216;53.806;11.598;2022-10-16T02:45:07;14.20;71.90
4406;DHT22;2216;53.806;11.598;2022-10-16T02:47:33;14.10;71.90
4406;DHT22;2216;53.806;11.598;2022-10-16T02:49:59;14.10;72.00
4406;DHT22;2216;53.806;11.598;2022-10-16T02:52:25;14.10;72.10
4406;DHT22;2216;53.806;11.598;2022-10-16T02:54:51;14.10;72.10
4406;DHT22;2216;53.806;11.598;2022-10-16T02:57:17;14.10;72.00
4406;DHT22;2216;53.806;11.598;2022-10-16T02:59:43;14.10;72.20
4406;DHT22;2216;53.806;11.598;2022-10-16T03:02:09;14.00;72.10
4406;DHT22;2216;53.806;11.598;2022-10-16T03:04:35;14.00;72.20
4406;DHT22;2216;53.806;11.598;2022-10-16T03:07:01;14.00;72.10
4406;DHT22;2216;53.806;11.598;2022-10-16T03:09:27;14.00;72.10
4406;DHT22;2216;53.806;11.598;2022-10-16T03:11:52;14.00;72.20
4406;DHT22;2216;53.806;11.598;2022-10-16T03:14:18;14.00;72.10
4406;DHT22;2216;53.806;11.598;2022-10-16T03:16:44;14.00;72.20
4406;DHT22;2216;53.806;11.598;2022-10-16T03:19:09;14.00;72.20
4406;DHT22;2216;53.806;11.598;2022-10-16T03:21:35;13.90;72.20
4406;DHT22;2216;53.806;11.598;2022-10-16T03:24:01;13.90;72.20
4406;DHT22;2216;53.806;11.598;2022-10-16T03:26:26;13.90;72.20
4406;DHT22;2216;53.806;11.598;2022-10-16T03:28:52;14.00;72.30
4406;DHT22;2216;53.806;11.598;2022-10-16T03:31:17;13.90;72.20
4406;DHT22;2216;53.806;11.598;2022-10-16T03:33:43;13.90;72.20
4406;DHT22;2216;53.806;11.598;2022-10-16T03:36:09;13.90;72.20
4406;DHT22;2216;53.806;11.598;2022-10-16T03:38:34;13.90;72.20
4406;DHT22;2216;53.806;11.598;2022-10-16T03:41:00;13.90;72.20
4406;DHT22;2216;53.806;11.598;2022-10-16T03:43:26;13.90;72.30
4406;DHT22;2216;53.806;11.598;2022-10-16T03:45:51;13.80;72.20
4406;DHT22;2216;53.806;11.598;2022-10-16T03:48:18;13.80;72.20
4406;DHT22;2216;53.806;11.598;2022-10-16T03:50:44;13.90;72.20
4406;DHT22;2216;53.806;11.598;2022-10-16T03:53:09;13.80;72.10
4406;DHT22;2216;53.806;11.598;2022-10-16T03:55:35;13.80;72.20
4406;DHT22;2216;53.806;11.598;2022-10-16T03:58:01;13.80;72.20
4406;DHT22;2216;53.806;11.598;2022-10-16T04:00:27;13.80;72.20
4406;DHT22;2216;53.806;11.598;2022-10-16T04:02:53;13.80;72.20
4406;DHT22;2216;53.806;11.598;2022-10-16T04:05:19;13.70;72.20
4406;DHT22;2216;53.806;11.598;2022-10-16T04:07:44;13.70;72.10
4406;DHT22;2216;53.806;11.598;2022-10-16T04:10:10;13.70;72.10
4406;DHT22;2216;53.806;11.598;2022-10-16T04:12:36;13.70;72.20
4406;DHT22;2216;53.806;11.598;2022-10-16T04:15:02;13.70;72.10
4406;DHT22;2216;53.806;11.598;2022-10-16T04:17:27;13.70;72.20
4406;DHT22;2216;53.806;11.598;2022-10-16T04:19:53;13.60;72.10
4406;DHT22;2216;53.806;11.598;2022-10-16T04:22:19;13.60;72.10
4406;DHT22;2216;53.806;11.598;2022-10-16T04:24:44;13.60;72.10
4406;DHT22;2216;53.806;11.598;2022-10-16T04:27:10;13.60;72.20
4406;DHT22;2216;53.806;11.598;2022-10-16T04:29:36;13.50;72.00
4406;DHT22;2216;53.806;11.598;2022-10-16T04:32:01;13.50;72.00
4406;DHT22;2216;53.806;11.598;2022-10-16T04:34:27;13.50;72.00
4406;DHT22;2216;53.806;11.598;2022-10-16T04:36:53;13.50;72.00
4406;DHT22;2216;53.806;11.598;2022-10-16T04:39:18;13.50;72.00
4406;DHT22;2216;53.806;11.598;2022-10-16T04:41:44;13.50;72.10
4406;DHT22;2216;53.806;11.598;2022-10-16T04:44:10;13.40;72.00
4406;DHT22;2216;53.806;11.598;2022-10-16T04:46:35;13.40;72.00
4406;DHT22;2216;53.806;11.598;2022-10-16T04:49:01;13.40;72.00
4406;DHT22;2216;53.806;11.598;2022-10-16T04:51:27;13.30;72.00
4406;DHT22;2216;53.806;11.598;2022-10-16T04:53:53;13.30;72.00
4406;DHT22;2216;53.806;11.598;2022-10-16T04:56:20;13.30;72.00
4406;DHT22;2216;53.806;11.598;2022-10-16T04:58:47;13.30;72.00
4406;DHT22;2216;53.806;11.598;2022-10-16T05:01:13;13.20;71.90
4406;DHT22;2216;53.806;11.598;2022-10-16T05:03:38;13.20;72.00
4406;DHT22;2216;53.806;11.598;2022-10-16T05:06:07;13.20;72.10
4406;DHT22;2216;53.806;11.598;2022-10-16T05:08:33;13.20;72.00
4406;DHT22;2216;53.806;11.598;2022-10-16T05:10:59;13.20;72.70
4406;DHT22;2216;53.806;11.598;2022-10-16T05:13:25;13.10;72.00
4406;DHT22;2216;53.806;11.598;2022-10-16T05:15:50;13.10;72.00
4406;DHT22;2216;53.806;11.598;2022-10-16T05:18:16;13.10;72.00
4406;DHT22;2216;53.806;11.598;2022-10-16T05:20:42;13.00;72.00
4406;DHT22;2216;53.806;11.598;2022-10-16T05:23:08;13.00;72.10
4406;DHT22;2216;53.806;11.598;2022-10-16T05:25:35;13.00;72.10
4406;DHT22;2216;53.806;11.598;2022-10-16T05:28:02;13.00;72.20
4406;DHT22;2216;53.806;11.598;2022-10-16T05:30:27;13.00;72.30
4406;DHT22;2216;53.806;11.598;2022-10-16T05:32:53;13.00;72.30
4406;DHT22;2216;53.806;11.598;2022-10-16T05:35:19;13.00;72.60
4406;DHT22;2216;53.806;11.598;2022-10-16T05:37:45;13.00;72.50
4406;DHT22;2216;53.806;11.598;2022-10-16T05:40:12;13.00;72.40
4406;DHT22;2216;53.806;11.598;2022-10-16T05:42:39;13.00;72.40
4406;DHT22;2216;53.806;11.598;2022-10-16T05:45:06;13.00;72.40
4406;DHT22;2216;53.806;11.598;2022-10-16T05:47:32;13.00;72.40
4406;DHT22;2216;53.806;11.598;2022-10-16T05:49:58;13.00;72.50
4406;DHT22;2216;53.806;11.598;2022-10-16T05:52:23;13.00;72.40
4406;DHT22;2216;53.806;11.598;2022-10-16T05:54:49;13.00;72.50
4406;DHT22;2216;53.806;11.598;2022-10-16T05:57:15;13.00;72.40
4406;DHT22;2216;53.806;11.598;2022-10-16T05:59:40;13.00;72.50
4406;DHT22;2216;53.806;11.598;2022-10-16T06:02:10;13.00;72.50
4406;DHT22;2216;53.806;11.598;2022-10-16T06:04:37;13.10;72.60
4406;DHT22;2216;53.806;11.598;2022-10-16T06:07:03;13.10;72.50
4406;DHT22;2216;53.806;11.598;2022-10-16T06:09:29;13.10;72.50
4406;DHT22;2216;53.806;11.598;2022-10-16T06:11:54;13.10;72.50
4406;DHT22;2216;53.806;11.598;2022-10-16T06:14:20;13.10;72.50
4406;DHT22;2216;53.806;11.598;2022-10-16T06:16:46;13.10;72.50
4406;DHT22;2216;53.806;11.598;2022-10-16T06:19:11;13.10;72.50
4406;DHT22;2216;53.806;11.598;2022-10-16T06:21:37;13.10;72.40
4406;DHT22;2216;53.806;11.598;2022-10-16T06:24:03;13.20;72.50
4406;DHT22;2216;53.806;11.598;2022-10-16T06:26:30;13.20;72.50
4406;DHT22;2216;53.806;11.598;2022-10-16T06:28:57;13.20;72.50
4406;DHT22;2216;53.806;11.598;2022-10-16T06:31:24;13.20;72.50
4406;DHT22;2216;53.806;11.598;2022-10-16T06:33:53;13.10;72.40
4406;DHT22;2216;53.806;11.598;2022-10-16T06:36:20;13.20;72.50
4406;DHT22;2216;53.806;11.598;2022-10-16T06:38:46;13.10;72.40
4406;DHT22;2216;53.806;11.598;2022-10-16T06:41:14;13.10;72.30
4406;DHT22;2216;53.806;11.598;2022-10-16T06:43:40;13.10;72.30
4406;DHT22;2216;53.806;11.598;2022-10-16T06:46:09;13.20;72.40
4406;DHT22;2216;53.806;11.598;2022-10-16T06:48:36;13.10;72.40
4406;DHT22;2216;53.806;11.598;2022-10-16T06:51:09;13.20;72.40
4406;DHT22;2216;53.806;11.598;2022-10-16T06:53:54;13.10;72.40
4406;DHT22;2216;53.806;11.598;2022-10-16T06:56:27;13.20;72.50
4406;DHT22;2216;53.806;11.598;2022-10-16T06:58:53;13.10;72.40
4406;DHT22;2216;53.806;11.598;2022-10-16T07:01:21;13.20;72.60
4406;DHT22;2216;53.806;11.598;2022-10-16T07:03:48;13.10;72.50
4406;DHT22;2216;53.806;11.598;2022-10-16T07:06:17;13.10;72.50
4406;DHT22;2216;53.806;11.598;2022-10-16T07:08:46;13.10;72.40
4406;DHT22;2216;53.806;11.598;2022-10-16T07:11:16;13.10;72.40
4406;DHT22;2216;53.806;11.598;2022-10-16T07:13:44;13.10;72.60
4406;DHT22;2216;53.806;11.598;2022-10-16T07:16:16;13.10;72.50
4406;DHT22;2216;53.806;11.598;2022-10-16T07:18:43;13.10;72.60
4406;DHT22;2216;53.806;11.598;2022-10-16T07:21:16;13.10;72.60
4406;DHT22;2216;53.806;11.598;2022-10-16T07:23:44;13.10;72.60
4406;DHT22;2216;53.806;11.598;2022-10-16T07:26:10;13.20;72.70
4406;DHT22;2216;53.806;11.598;2022-10-16T07:28:37;13.20;72.80
4406;DHT22;2216;53.806;11.598;2022-10-16T07:31:04;13.20;72.90
4406;DHT22;2216;53.806;11.598;2022-10-16T07:33:33;13.20;72.80
4406;DHT22;2216;53.806;11.598;2022-10-16T07:36:00;13.30;72.90
4406;DHT22;2216;53.806;11.598;2022-10-16T07:38:26;13.30;72.80
4406;DHT22;2216;53.806;11.598;2022-10-16T07:41:05;13.30;72.90
4406;DHT22;2216;53.806;11.598;2022-10-16T07:43:33;13.40;72.90
4406;DHT22;2216;53.806;11.598;2022-10-16T07:45:59;13.40;73.20
4406;DHT22;2216;53.806;11.598;2022-10-16T07:48:28;13.50;73.20
4406;DHT22;2216;53.806;11.598;2022-10-16T07:50:59;13.50;73.30
4406;DHT22;2216;53.806;11.598;2022-10-16T07:53:29;13.60;73.30
4406;DHT22;2216;53.806;11.598;2022-10-16T07:56:04;13.60;73.30
4406;DHT22;2216;53.806;11.598;2022-10-16T07:58:32;13.60;73.20
4406;DHT22;2216;53.806;11.598;2022-10-16T08:00:58;13.70;73.30
4406;DHT22;2216;53.806;11.598;2022-10-16T08:03:25;13.70;73.30
4406;DHT22;2216;53.806;11.598;2022-10-16T08:05:51;13.80;73.50
4406;DHT22;2216;53.806;11.598;2022-10-16T08:08:17;13.80;73.40
4406;DHT22;2216;53.806;11.598;2022-10-16T08:10:43;14.00;74.40
4406;DHT22;2216;53.806;11.598;2022-10-16T08:13:10;14.00;73.60
4406;DHT22;2216;53.806;11.598;2022-10-16T08:15:35;14.10;73.80
4406;DHT22;2216;53.806;11.598;2022-10-16T08:18:03;14.20;73.80
4406;DHT22;2216;53.806;11.598;2022-10-16T08:20:31;14.30;74.00
4406;DHT22;2216;53.806;11.598;2022-10-16T08:22:58;14.40;74.00
4406;DHT22;2216;53.806;11.598;2022-10-16T08:25:24;14.60;74.10
4406;DHT22;2216;53.806;11.598;2022-10-16T08:27:51;14.60;73.90
4406;DHT22;2216;53.806;11.598;2022-10-16T08:30:18;14.70;74.20
4406;DHT22;2216;53.806;11.598;2022-10-16T08:32:45;14.90;74.90
4406;DHT22;2216;53.806;11.598;2022-10-16T08:35:12;15.00;74.40
4406;DHT22;2216;53.806;11.598;2022-10-16T08:37:38;15.10;74.10
4406;DHT22;2216;53.806;11.598;2022-10-16T08:40:06;15.30;74.30
4406;DHT22;2216;53.806;11.598;2022-10-16T08:42:56;15.40;74.20
4406;DHT22;2216;53.806;11.598;2022-10-16T08:48:36;15.60;74.30
4406;DHT22;2216;53.806;11.598;2022-10-16T08:51:11;15.90;74.60
4406;DHT22;2216;53.806;11.598;2022-10-16T08:56:20;16.20;74.20
4406;DHT22;2216;53.806;11.598;2022-10-16T08:58:46;16.30;73.90
4406;DHT22;2216;53.806;11.598;2022-10-16T09:01:15;16.40;73.60
4406;DHT22;2216;53.806;11.598;2022-10-16T09:07:18;16.60;73.20
4406;DHT22;2216;53.806;11.598;2022-10-16T09:10:10;16.70;73.20
4406;DHT22;2216;53.806;11.598;2022-10-16T09:13:29;16.70;72.90
4406;DHT22;2216;53.806;11.598;2022-10-16T09:18:32;16.90;72.80
4406;DHT22;2216;53.806;11.598;2022-10-16T09:23:44;16.90;72.70
4406;DHT22;2216;53.806;11.598;2022-10-16T09:26:13;17.00;72.60
4406;DHT22;2216;53.806;11.598;2022-10-16T09:28:39;17.00;72.50
4406;DHT22;2216;53.806;11.598;2022-10-16T09:31:05;17.00;72.40
4406;DHT22;2216;53.806;11.598;2022-10-16T09:33:36;17.00;72.30
4406;DHT22;2216;53.806;11.598;2022-10-16T09:36:05;17.00;72.20
4406;DHT22;2216;53.806;11.598;2022-10-16T09:38:34;17.10;72.30
4406;DHT22;2216;53.806;11.598;2022-10-16T09:41:18;17.00;72.20
4406;DHT22;2216;53.806;11.598;2022-10-16T09:43:55;17.10;72.30
4406;DHT22;2216;53.806;11.598;2022-10-16T09:49:01;17.10;72.30
4406;DHT22;2216;53.806;11.598;2022-10-16T09:51:33;17.20;72.50
4406;DHT22;2216;53.806;11.598;2022-10-16T09:56:36;17.40;73.00
4406;DHT22;2216;53.806;11.598;2022-10-16T09:59:18;17.50;73.00
4406;DHT22;2216;53.806;11.598;2022-10-16T10:04:15;17.70;73.00
4406;DHT22;2216;53.806;11.598;2022-10-16T10:06:46;17.80;73.00
4406;DHT22;2216;53.806;11.598;2022-10-16T10:09:23;18.00;73.00
4406;DHT22;2216;53.806;11.598;2022-10-16T10:12:00;18.10;73.00
4406;DHT22;2216;53.806;11.598;2022-10-16T10:14:35;18.20;72.80
4406;DHT22;2216;53.806;11.598;2022-10-16T10:19:41;18.50;72.60
4406;DHT22;2216;53.806;11.598;2022-10-16T10:22:21;18.70;72.80
4406;DHT22;2216;53.806;11.598;2022-10-16T10:25:00;18.80;72.50
4406;DHT22;2216;53.806;11.598;2022-10-16T10:28:05;18.90;72.30
4406;DHT22;2216;53.806;11.598;2022-10-16T10:31:02;19.10;72.50
4406;DHT22;2216;53.806;11.598;2022-10-16T10:34:20;19.30;72.20
4406;DHT22;2216;53.806;11.598;2022-10-16T10:40:34;19.50;72.00
4406;DHT22;2216;53.806;11.598;2022-10-16T10:46:36;19.90;72.00
4406;DHT22;2216;53.806;11.598;2022-10-16T10:49:13;20.00;71.80
4406;DHT22;2216;53.806;11.598;2022-10-16T10:52:01;20.10;71.60
4406;DHT22;2216;53.806;11.598;2022-10-16T10:57:25;20.20;71.50
4406;DHT22;2216;53.806;11.598;2022-10-16T11:00:12;20.30;71.30
4406;DHT22;2216;53.806;11.598;2022-10-16T11:09:30;20.60;70.80
4406;DHT22;2216;53.806;11.598;2022-10-16T11:17:52;20.80;70.90
4406;DHT22;2216;53.806;11.598;2022-10-16T11:20:24;20.90;70.80
4406;DHT22;2216;53.806;11.598;2022-10-16T11:23:14;20.90;70.70
4406;DHT22;2216;53.806;11.598;2022-10-16T11:25:43;21.00;70.50
4406;DHT22;2216;53.806;11.598;2022-10-16T11:28:16;21.00;70.20
4406;DHT22;2216;53.806;11.598;2022-10-16T11:31:13;21.10;70.00
4406;DHT22;2216;53.806;11.598;2022-10-16T11:36:32;21.20;70.20
4406;DHT22;2216;53.806;11.598;2022-10-16T11:39:19;21.20;70.00
4406;DHT22;2216;53.806;11.598;2022-10-16T11:42:09;21.30;70.50
4406;DHT22;2216;53.806;11.598;2022-10-16T11:47:37;21.50;70.10
4406;DHT22;2216;53.806;11.598;2022-10-16T11:50:33;21.50;70.00
4406;DHT22;2216;53.806;11.598;2022-10-16T11:53:09;21.50;69.70
4406;DHT22;2216;53.806;11.598;2022-10-16T11:55:55;21.50;69.30
4406;DHT22;2216;53.806;11.598;2022-10-16T11:58:31;21.40;69.00
4406;DHT22;2216;53.806;11.598;2022-10-16T12:06:41;21.30;69.70
4406;DHT22;2216;53.806;11.598;2022-10-16T12:09:32;21.30;69.70
4406;DHT22;2216;53.806;11.598;2022-10-16T12:12:00;21.30;68.90
4406;DHT22;2216;53.806;11.598;2022-10-16T12:17:02;21.30;69.00
4406;DHT22;2216;53.806;11.598;2022-10-16T12:19:31;21.30;69.20
4406;DHT22;2216;53.806;11.598;2022-10-16T12:22:00;21.40;69.10
4406;DHT22;2216;53.806;11.598;2022-10-16T12:24:41;21.40;69.10
4406;DHT22;2216;53.806;11.598;2022-10-16T12:27:43;21.40;69.20
4406;DHT22;2216;53.806;11.598;2022-10-16T12:30:22;21.40;69.20
4406;DHT22;2216;53.806;11.598;2022-10-16T12:32:57;21.50;69.10
4406;DHT22;2216;53.806;11.598;2022-10-16T12:35:28;21.50;68.60
4406;DHT22;2216;53.806;11.598;2022-10-16T12:38:14;21.50;68.60
4406;DHT22;2216;53.806;11.598;2022-10-16T12:40:44;21.40;68.60
4406;DHT22;2216;53.806;11.598;2022-10-16T12:43:26;21.40;68.50
4406;DHT22;2216;53.806;11.598;2022-10-16T12:46:05;21.40;68.50
4406;DHT22;2216;53.806;11.598;2022-10-16T12:48:47;21.40;68.10
4406;DHT22;2216;53.806;11.598;2022-10-16T12:51:33;21.40;68.70
4406;DHT22;2216;53.806;11.598;2022-10-16T12:54:04;21.40;68.30
4406;DHT22;2216;53.806;11.598;2022-10-16T13:02:58;21.40;68.10
4406;DHT22;2216;53.806;11.598;2022-10-16T13:06:04;21.30;67.70
4406;DHT22;2216;53.806;11.598;2022-10-16T13:08:51;21.10;67.90
4406;DHT22;2216;53.806;11.598;2022-10-16T13:14:32;20.90;67.20
4406;DHT22;2216;53.806;11.598;2022-10-16T13:18:05;20.80;67.10
4406;DHT22;2216;53.806;11.598;2022-10-16T13:20:53;20.70;67.20
4406;DHT22;2216;53.806;11.598;2022-10-16T13:24:16;20.60;67.70
4406;DHT22;2216;53.806;11.598;2022-10-16T13:26:58;20.50;67.30
4406;DHT22;2216;53.806;11.598;2022-10-16T13:29:33;20.40;67.70
4406;DHT22;2216;53.806;11.598;2022-10-16T13:32:10;20.40;68.20
4406;DHT22;2216;53.806;11.598;2022-10-16T13:34:48;20.40;68.50
4406;DHT22;2216;53.806;11.598;2022-10-16T13:37:18;20.40;68.40
4406;DHT22;2216;53.806;11.598;2022-10-16T13:39:46;20.40;68.30
4406;DHT22;2216;53.806;11.598;2022-10-16T13:44:49;20.40;68.50
4406;DHT22;2216;53.806;11.598;2022-10-16T13:47:18;20.40;67.80
4406;DHT22;2216;53.806;11.598;2022-10-16T13:50:04;20.30;68.20
4406;DHT22;2216;53.806;11.598;2022-10-16T13:52:32;20.30;68.20
4406;DHT22;2216;53.806;11.598;2022-10-16T13:54:57;20.30;68.40
4406;DHT22;2216;53.806;11.598;2022-10-16T13:57:24;20.30;68.00
4406;DHT22;2216;53.806;11.598;2022-10-16T13:59:51;20.30;67.60
4406;DHT22;2216;53.806;11.598;2022-10-16T14:02:30;20.20;67.40
4406;DHT22;2216;53.806;11.598;2022-10-16T14:04:57;20.20;67.50
4406;DHT22;2216;53.806;11.598;2022-10-16T14:07:29;20.20;67.00
4406;DHT22;2216;53.806;11.598;2022-10-16T14:10:03;20.10;66.80
4406;DHT22;2216;53.806;11.598;2022-10-16T14:12:44;20.10;67.20
4406;DHT22;2216;53.806;11.598;2022-10-16T14:15:17;20.00;67.60
4406;DHT22;2216;53.806;11.598;2022-10-16T14:17:47;20.00;67.70
4406;DHT22;2216;53.806;11.598;2022-10-16T14:20:16;20.00;67.70
4406;DHT22;2216;53.806;11.598;2022-10-16T14:22:42;19.90;67.50
4406;DHT22;2216;53.806;11.598;2022-10-16T14:30:27;19.80;67.70
4406;DHT22;2216;53.806;11.598;2022-10-16T14:32:57;19.80;67.70
4406;DHT22;2216;53.806;11.598;2022-10-16T14:35:30;19.80;67.70
4406;DHT22;2216;53.806;11.598;2022-10-16T14:38:05;19.60;67.50
4406;DHT22;2216;53.806;11.598;2022-10-16T14:40:34;19.60;67.70
4406;DHT22;2216;53.806;11.598;2022-10-16T14:43:02;19.50;67.90
4406;DHT22;2216;53.806;11.598;2022-10-16T14:45:32;19.50;68.10
4406;DHT22;2216;53.806;11.598;2022-10-16T14:48:01;19.50;68.10
4406;DHT22;2216;53.806;11.598;2022-10-16T14:50:30;19.40;68.20
4406;DHT22;2216;53.806;11.598;2022-10-16T14:52:56;19.40;68.20
4406;DHT22;2216;53.806;11.598;2022-10-16T14:55:21;19.40;68.20
4406;DHT22;2216;53.806;11.598;2022-10-16T14:57:47;19.30;68.00
4406;DHT22;2216;53.806;11.598;2022-10-16T15:00:24;19.30;68.20
4406;DHT22;2216;53.806;11.598;2022-10-16T15:02:50;19.20;68.20
4406;DHT22;2216;53.806;11.598;2022-10-16T15:05:24;19.20;68.10
4406;DHT22;2216;53.806;11.598;2022-10-16T15:07:53;19.10;68.10
4406;DHT22;2216;53.806;11.598;2022-10-16T15:10:20;19.10;68.20
4406;DHT22;2216;53.806;11.598;2022-10-16T15:12:47;19.10;68.30
4406;DHT22;2216;53.806;11.598;2022-10-16T15:17:51;19.00;68.20
4406;DHT22;2216;53.806;11.598;2022-10-16T15:20:31;19.00;68.20
4406;DHT22;2216;53.806;11.598;2022-10-16T15:23:13;18.90;68.20
4406;DHT22;2216;53.806;11.598;2022-10-16T15:25:52;18.80;68.20
4406;DHT22;2216;53.806;11.598;2022-10-16T15:28:20;18.80;68.00
4406;DHT22;2216;53.806;11.598;2022-10-16T15:30:48;18.70;68.00
4406;DHT22;2216;53.806;11.598;2022-10-16T15:33:17;18.60;68.00
4406;DHT22;2216;53.806;11.598;2022-10-16T15:35:47;18.60;68.10
4406;DHT22;2216;53.806;11.598;2022-10-16T15:38:14;18.50;68.00
4406;DHT22;2216;53.806;11.598;2022-10-16T15:40:41;18.50;68.00
4406;DHT22;2216;53.806;11.598;2022-10-16T15:43:07;18.40;68.00
4406;DHT22;2216;53.806;11.598;2022-10-16T15:45:33;18.30;68.00
4406;DHT22;2216;53.806;11.598;2022-10-16T15:47:59;18.30;68.00
4406;DHT22;2216;53.806;11.598;2022-10-16T15:50:24;18.20;68.00
4406;DHT22;2216;53.806;11.598;2022-10-16T15:52:51;18.10;68.00
4406;DHT22;2216;53.806;11.598;2022-10-16T15:55:17;18.00;67.90
4406;DHT22;2216;53.806;11.598;2022-10-16T15:57:44;17.90;67.90
4406;DHT22;2216;53.806;11.598;2022-10-16T16:00:13;17.90;68.00
4406;DHT22;2216;53.806;11.598;2022-10-16T16:02:41;17.80;67.90
4406;DHT22;2216;53.806;11.598;2022-10-16T16:05:08;17.70;67.80
4406;DHT22;2216;53.806;11.598;2022-10-16T16:07:36;17.60;67.80
4406;DHT22;2216;53.806;11.598;2022-10-16T16:10:04;17.50;67.90
4406;DHT22;2216;53.806;11.598;2022-10-16T16:12:31;17.50;67.90
4406;DHT22;2216;53.806;11.598;2022-10-16T16:14:57;17.40;67.90
4406;DHT22;2216;53.806;11.598;2022-10-16T16:17:22;17.30;67.90
4406;DHT22;2216;53.806;11.598;2022-10-16T16:19:49;17.20;67.90
4406;DHT22;2216;53.806;11.598;2022-10-16T16:22:15;17.10;67.80
4406;DHT22;2216;53.806;11.598;2022-10-16T16:24:41;17.00;67.80
4406;DHT22;2216;53.806;11.598;2022-10-16T16:27:07;17.00;67.90
4406;DHT22;2216;53.806;11.598;2022-10-16T16:29:33;16.80;67.90
4406;DHT22;2216;53.806;11.598;2022-10-16T16:31:59;16.80;67.90
4406;DHT22;2216;53.806;11.598;2022-10-16T16:34:26;16.70;67.90
4406;DHT22;2216;53.806;11.598;2022-10-16T16:36:53;16.60;67.90
4406;DHT22;2216;53.806;11.598;2022-10-16T16:39:19;16.50;67.90
4406;DHT22;2216;53.806;11.598;2022-10-16T16:41:45;16.40;67.90
4406;DHT22;2216;53.806;11.598;2022-10-16T16:44:11;16.30;67.80
4406;DHT22;2216;53.806;11.598;2022-10-16T16:46:37;16.30;67.90
4406;DHT22;2216;53.806;11.598;2022-10-16T16:49:05;16.20;67.90
4406;DHT22;2216;53.806;11.598;2022-10-16T16:51:32;16.00;67.80
4406;DHT22;2216;53.806;11.598;2022-10-16T16:53:58;16.00;67.90
4406;DHT22;2216;53.806;11.598;2022-10-16T16:56:25;15.90;67.90
4406;DHT22;2216;53.806;11.598;2022-10-16T16:58:54;15.80;67.90
4406;DHT22;2216;53.806;11.598;2022-10-16T17:01:22;15.70;67.90
4406;DHT22;2216;53.806;11.598;2022-10-16T17:03:50;15.60;67.90
4406;DHT22;2216;53.806;11.598;2022-10-16T17:06:22;15.60;68.00
4406;DHT22;2216;53.806;11.598;2022-10-16T17:08:52;15.50;68.10
4406;DHT22;2216;53.806;11.598;2022-10-16T17:11:23;15.30;68.00
4406;DHT22;2216;53.806;11.598;2022-10-16T17:13:50;15.30;68.10
4406;DHT22;2216;53.806;11.598;2022-10-16T17:16:19;15.20;68.10
4406;DHT22;2216;53.806;11.598;2022-10-16T17:18:46;15.20;68.10
4406;DHT22;2216;53.806;11.598;2022-10-16T17:21:12;15.10;68.20
4406;DHT22;2216;53.806;11.598;2022-10-16T17:23:38;15.00;68.10
4406;DHT22;2216;53.806;11.598;2022-10-16T17:26:12;14.90;68.10
4406;DHT22;2216;53.806;11.598;2022-10-16T17:28:40;14.90;68.20
4406;DHT22;2216;53.806;11.598;2022-10-16T17:33:39;14.70;68.30
4406;DHT22;2216;53.806;11.598;2022-10-16T17:36:05;14.70;68.30
4406;DHT22;2216;53.806;11.598;2022-10-16T17:38:31;14.70;68.30
4406;DHT22;2216;53.806;11.598;2022-10-16T17:40:57;14.60;68.30
4406;DHT22;2216;53.806;11.598;2022-10-16T17:43:23;14.50;68.30
4406;DHT22;2216;53.806;11.598;2022-10-16T17:45:49;14.40;68.30
4406;DHT22;2216;53.806;11.598;2022-10-16T17:48:15;14.40;68.40